createdAt,value
2023-07-26T00:00:46.436Z,23.70
2023-07-26T00:01:48.581Z,23.71
2023-07-26T00:02:50.809Z,23.71
2023-07-26T00:03:53.141Z,23.71
2023-07-26T00:04:55.367Z,23.69
2023-07-26T00:05:57.509Z,23.70
2023-07-26T00:06:59.738Z,23.70
2023-07-26T00:08:01.872Z,23.71
2023-07-26T00:09:05.441Z,23.70
2023-07-26T00:10:08.420Z,23.71
2023-07-26T00:11:10.529Z,23.70
2023-07-26T00:12:12.498Z,23.70
2023-07-26T00:13:17.964Z,23.70
2023-07-26T00:14:20.147Z,23.70
2023-07-26T00:15:22.252Z,23.71
2023-07-26T00:16:24.419Z,23.70
2023-07-26T00:17:26.604Z,23.70
2023-07-26T00:18:28.693Z,23.69
2023-07-26T00:19:31.010Z,23.68
2023-07-26T00:20:33.325Z,23.68
2023-07-26T00:21:35.440Z,23.68
2023-07-26T00:22:37.516Z,23.67
2023-07-26T00:23:39.666Z,23.66
2023-07-26T00:24:41.701Z,23.65
2023-07-26T00:25:43.763Z,23.66
2023-07-26T00:26:46.187Z,23.66
2023-07-26T00:27:48.403Z,23.64
2023-07-26T00:28:50.575Z,23.61
2023-07-26T00:29:52.698Z,23.60
2023-07-26T00:30:54.933Z,23.64
2023-07-26T00:31:57.125Z,23.66
2023-07-26T00:32:59.300Z,23.70
2023-07-26T00:34:01.261Z,23.71
2023-07-26T00:35:06.424Z,23.71
2023-07-26T00:36:09.071Z,23.72
2023-07-26T00:37:11.136Z,23.73
2023-07-26T00:38:13.211Z,23.73
2023-07-26T00:39:15.872Z,23.73
2023-07-26T00:40:18.407Z,23.74
2023-07-26T00:41:21.376Z,23.72
2023-07-26T00:42:23.463Z,23.72
2023-07-26T00:43:25.355Z,23.73
2023-07-26T00:44:27.356Z,23.73
2023-07-26T00:45:31.124Z,23.73
2023-07-26T00:46:33.752Z,23.74
2023-07-26T00:47:37.139Z,23.73
2023-07-26T00:48:39.816Z,23.75
2023-07-26T00:49:42.092Z,23.76
2023-07-26T00:50:45.731Z,23.75
2023-07-26T00:51:47.989Z,23.77
2023-07-26T00:52:50.195Z,23.76
2023-07-26T00:53:52.737Z,23.76
2023-07-26T00:54:55.078Z,23.76
2023-07-26T00:55:57.288Z,23.77
2023-07-26T00:56:59.702Z,23.76
2023-07-26T00:58:02.746Z,23.77
2023-07-26T00:59:07.249Z,23.79
2023-07-26T01:00:10.191Z,23.79
2023-07-26T01:01:13.291Z,23.79
2023-07-26T01:02:15.421Z,23.79
2023-07-26T01:03:18.023Z,23.78
2023-07-26T01:04:20.072Z,23.78
2023-07-26T01:05:22.810Z,23.78
2023-07-26T01:09:03.610Z,23.87
2023-07-26T01:10:12.845Z,23.76
2023-07-26T01:11:34.046Z,23.76
2023-07-26T01:12:43.027Z,23.75
2023-07-26T01:15:31.217Z,23.85
2023-07-26T01:16:33.769Z,23.73
2023-07-26T01:17:36.949Z,23.72
2023-07-26T01:18:39.041Z,23.71
2023-07-26T01:19:41.267Z,23.70
2023-07-26T01:20:44.485Z,23.69
2023-07-26T01:21:46.797Z,23.67
2023-07-26T01:22:48.898Z,23.65
2023-07-26T01:23:52.180Z,23.63
2023-07-26T01:24:54.188Z,23.63
2023-07-26T01:25:56.465Z,23.60
2023-07-26T01:26:58.717Z,23.58
2023-07-26T01:28:01.051Z,23.58
2023-07-26T01:29:03.992Z,23.57
2023-07-26T01:30:06.956Z,23.54
2023-07-26T01:31:09.662Z,23.52
2023-07-26T01:32:12.867Z,23.51
2023-07-26T01:33:16.371Z,23.50
2023-07-26T01:34:19.184Z,23.50
2023-07-26T01:35:21.755Z,23.48
2023-07-26T01:36:24.371Z,23.46
2023-07-26T01:37:27.418Z,23.42
2023-07-26T01:38:30.410Z,23.40
2023-07-26T01:39:32.667Z,23.39
2023-07-26T01:40:36.047Z,23.40
2023-07-26T01:41:39.156Z,23.39
2023-07-26T01:42:41.850Z,23.37
2023-07-26T01:43:44.459Z,23.34
2023-07-26T01:44:46.556Z,23.33
2023-07-26T01:45:50.588Z,23.31
2023-07-26T01:46:52.720Z,23.30
2023-07-26T01:47:54.901Z,23.28
2023-07-26T01:48:57.026Z,23.28
2023-07-26T01:49:59.351Z,23.25
2023-07-26T01:51:01.650Z,23.24
2023-07-26T01:52:04.321Z,23.22
2023-07-26T01:53:06.678Z,23.22
2023-07-26T01:54:08.688Z,23.20
2023-07-26T01:55:10.823Z,23.18
2023-07-26T01:56:13.237Z,23.18
2023-07-26T01:57:15.454Z,23.16
2023-07-26T01:58:17.610Z,23.14
2023-07-26T01:59:19.875Z,23.14
2023-07-26T02:00:22.154Z,23.13
2023-07-26T02:01:26.195Z,23.12
2023-07-26T02:02:28.322Z,23.09
2023-07-26T02:03:30.861Z,23.08
2023-07-26T02:04:33.084Z,23.07
2023-07-26T02:05:35.491Z,23.06
2023-07-26T02:06:37.981Z,23.04
2023-07-26T02:07:40.098Z,23.05
2023-07-26T02:08:42.599Z,23.01
2023-07-26T02:09:44.717Z,23.01
2023-07-26T02:10:46.868Z,22.99
2023-07-26T02:11:49.048Z,22.97
2023-07-26T02:12:51.149Z,22.96
2023-07-26T02:13:53.393Z,22.94
2023-07-26T02:14:55.599Z,22.91
2023-07-26T02:15:57.809Z,22.90
2023-07-26T02:17:00.232Z,22.88
2023-07-26T02:18:02.755Z,22.86
2023-07-26T02:19:05.968Z,22.84
2023-07-26T02:20:09.769Z,22.83
2023-07-26T02:21:12.045Z,22.81
2023-07-26T02:22:14.242Z,22.80
2023-07-26T02:23:16.302Z,22.78
2023-07-26T02:24:18.618Z,22.77
2023-07-26T02:25:20.732Z,22.76
2023-07-26T02:26:23.045Z,22.74
2023-07-26T02:27:26.212Z,22.73
2023-07-26T02:28:28.417Z,22.72
2023-07-26T02:29:30.652Z,22.71
2023-07-26T02:30:32.951Z,22.70
2023-07-26T02:31:35.287Z,22.69
2023-07-26T02:32:37.956Z,22.68
2023-07-26T02:33:40.029Z,22.67
2023-07-26T02:34:42.763Z,22.66
2023-07-26T02:35:44.898Z,22.65
2023-07-26T02:36:47.417Z,22.64
2023-07-26T02:37:49.499Z,22.64
2023-07-26T02:38:51.592Z,22.63
2023-07-26T02:39:53.822Z,22.62
2023-07-26T02:40:55.993Z,22.62
2023-07-26T02:41:58.052Z,22.61
2023-07-26T02:43:00.172Z,22.60
2023-07-26T02:44:02.315Z,22.59
2023-07-26T02:45:05.368Z,22.57
2023-07-26T02:46:08.790Z,22.56
2023-07-26T02:47:10.945Z,22.55
2023-07-26T02:48:13.329Z,22.54
2023-07-26T02:49:15.370Z,22.53
2023-07-26T02:50:17.714Z,22.52
2023-07-26T02:51:19.828Z,22.52
2023-07-26T02:52:21.952Z,22.53
2023-07-26T02:53:24.087Z,22.50
2023-07-26T02:54:26.214Z,22.50
2023-07-26T02:55:28.675Z,22.50
2023-07-26T02:56:31.065Z,22.50
2023-07-26T02:57:33.126Z,22.49
2023-07-26T02:58:35.329Z,22.48
2023-07-26T02:59:37.620Z,22.48
2023-07-26T03:00:39.909Z,22.48
2023-07-26T03:01:42.072Z,22.46
2023-07-26T03:02:44.234Z,22.47
2023-07-26T03:03:46.390Z,22.46
2023-07-26T03:04:48.535Z,22.46
2023-07-26T03:05:50.683Z,22.45
2023-07-26T03:06:52.901Z,22.44
2023-07-26T03:07:55.053Z,22.45
2023-07-26T03:08:58.608Z,22.44
2023-07-26T03:10:01.017Z,22.44
2023-07-26T03:11:03.401Z,22.43
2023-07-26T03:12:05.895Z,22.42
2023-07-26T03:13:08.054Z,22.42
2023-07-26T03:14:10.269Z,22.40
2023-07-26T03:15:12.454Z,22.40
2023-07-26T03:16:16.680Z,22.39
2023-07-26T03:17:22.859Z,22.40
2023-07-26T03:18:23.012Z,22.38
2023-07-26T03:19:25.070Z,22.38
2023-07-26T03:20:27.549Z,22.38
2023-07-26T03:21:29.613Z,22.36
2023-07-26T03:22:31.826Z,22.37
2023-07-26T03:23:33.896Z,22.34
2023-07-26T03:24:35.993Z,22.33
2023-07-26T03:25:38.083Z,22.31
2023-07-26T03:26:40.782Z,22.31
2023-07-26T03:27:42.893Z,22.31
2023-07-26T03:28:44.989Z,22.30
2023-07-26T03:29:47.244Z,22.30
2023-07-26T03:30:49.572Z,22.30
2023-07-26T03:31:52.309Z,22.29
2023-07-26T03:32:56.411Z,22.28
2023-07-26T03:34:00.530Z,22.29
2023-07-26T03:35:02.635Z,22.28
2023-07-26T03:36:05.223Z,22.28
2023-07-26T03:37:08.278Z,22.28
2023-07-26T03:38:10.521Z,22.28
2023-07-26T03:39:12.600Z,22.27
2023-07-26T03:40:15.139Z,22.28
2023-07-26T03:41:18.402Z,22.27
2023-07-26T03:42:20.681Z,22.27
2023-07-26T03:43:22.743Z,22.28
2023-07-26T03:44:24.837Z,22.30
2023-07-26T03:45:26.832Z,22.31
2023-07-26T03:46:29.064Z,22.31
2023-07-26T03:47:31.135Z,22.34
2023-07-26T03:48:33.158Z,22.34
2023-07-26T03:49:35.333Z,22.34
2023-07-26T03:50:37.792Z,22.35
2023-07-26T03:51:41.886Z,22.34
2023-07-26T03:52:47.113Z,22.34
2023-07-26T03:53:49.206Z,22.37
2023-07-26T03:54:51.333Z,22.38
2023-07-26T03:55:53.430Z,22.39
2023-07-26T03:56:55.746Z,22.41
2023-07-26T03:57:58.169Z,22.42
2023-07-26T03:59:00.315Z,22.44
2023-07-26T04:00:02.908Z,22.47
2023-07-26T04:01:07.029Z,22.48
2023-07-26T04:02:09.336Z,22.49
2023-07-26T04:03:11.864Z,22.50
2023-07-26T04:04:15.126Z,22.50
2023-07-26T04:05:17.645Z,22.51
2023-07-26T04:06:20.206Z,22.52
2023-07-26T04:07:22.300Z,22.51
2023-07-26T04:08:24.471Z,22.52
2023-07-26T04:09:26.594Z,22.53
2023-07-26T04:10:28.795Z,22.52
2023-07-26T04:11:31.023Z,22.53
2023-07-26T04:12:33.128Z,22.52
2023-07-26T04:13:35.493Z,22.54
2023-07-26T04:14:37.494Z,22.55
2023-07-26T04:15:40.447Z,22.57
2023-07-26T04:16:42.981Z,22.59
2023-07-26T04:17:45.022Z,22.60
2023-07-26T04:18:48.074Z,22.60
2023-07-26T04:19:51.565Z,22.59
2023-07-26T04:20:54.724Z,22.59
2023-07-26T04:21:56.806Z,22.59
2023-07-26T04:22:58.818Z,22.59
2023-07-26T04:24:00.870Z,22.60
2023-07-26T04:25:03.248Z,22.61
2023-07-26T04:26:05.675Z,22.61
2023-07-26T04:27:07.866Z,22.62
2023-07-26T04:28:09.991Z,22.64
2023-07-26T04:29:12.360Z,22.63
2023-07-26T04:30:14.872Z,22.62
2023-07-26T04:31:16.997Z,22.63
2023-07-26T04:32:19.113Z,22.65
2023-07-26T04:33:21.304Z,22.65
2023-07-26T04:34:23.368Z,22.66
2023-07-26T04:35:25.368Z,22.66
2023-07-26T04:36:27.614Z,22.67
2023-07-26T04:37:29.705Z,22.69
2023-07-26T04:38:31.875Z,22.71
2023-07-26T04:39:34.060Z,22.73
2023-07-26T04:40:37.281Z,22.75
2023-07-26T04:41:39.456Z,22.78
2023-07-26T04:42:41.705Z,22.81
2023-07-26T04:43:43.810Z,22.83
2023-07-26T04:44:46.264Z,22.84
2023-07-26T04:45:49.697Z,22.86
2023-07-26T04:46:52.201Z,22.86
2023-07-26T04:47:54.306Z,22.88
2023-07-26T04:48:56.366Z,22.88
2023-07-26T04:49:58.530Z,22.91
2023-07-26T04:51:04.467Z,22.92
2023-07-26T04:52:07.221Z,22.95
2023-07-26T04:53:09.599Z,22.97
2023-07-26T04:54:11.662Z,22.99
2023-07-26T04:55:13.973Z,23.01
2023-07-26T04:56:16.375Z,23.05
2023-07-26T04:57:18.507Z,23.07
2023-07-26T04:58:20.685Z,23.09
2023-07-26T04:59:23.036Z,23.11
2023-07-26T05:00:25.514Z,23.12
2023-07-26T05:01:27.680Z,23.12
2023-07-26T05:02:30.129Z,23.13
2023-07-26T05:03:32.896Z,23.16
2023-07-26T05:04:35.748Z,23.19
2023-07-26T05:05:38.619Z,23.22
2023-07-26T05:06:40.934Z,23.23
2023-07-26T05:07:43.302Z,23.24
2023-07-26T05:08:45.891Z,23.26
2023-07-26T05:09:48.340Z,23.27
2023-07-26T05:10:51.254Z,23.32
2023-07-26T05:11:54.117Z,23.36
2023-07-26T05:12:57.494Z,23.38
2023-07-26T05:13:59.820Z,23.39
2023-07-26T05:15:02.025Z,23.42
2023-07-26T05:16:04.972Z,23.46
2023-07-26T05:17:07.400Z,23.48
2023-07-26T05:18:09.587Z,23.51
2023-07-26T05:19:11.878Z,23.56
2023-07-26T05:20:14.187Z,23.60
2023-07-26T05:21:16.458Z,23.62
2023-07-26T05:22:18.640Z,23.66
2023-07-26T05:23:20.838Z,23.70
2023-07-26T05:24:23.193Z,23.73
2023-07-26T05:25:27.854Z,23.77
2023-07-26T05:26:30.124Z,23.78
2023-07-26T05:27:32.383Z,23.81
2023-07-26T05:28:34.520Z,23.86
2023-07-26T05:29:36.872Z,23.90
2023-07-26T05:30:40.457Z,23.92
2023-07-26T05:31:42.753Z,23.95
2023-07-26T05:32:45.481Z,23.96
2023-07-26T05:33:47.915Z,23.96
2023-07-26T05:34:55.472Z,23.93
2023-07-26T05:35:59.660Z,23.91
2023-07-26T05:37:02.417Z,23.90
2023-07-26T05:39:34.262Z,23.90
2023-07-26T05:40:36.752Z,23.74
2023-07-26T05:41:38.939Z,23.73
2023-07-26T05:42:41.097Z,23.73
2023-07-26T05:43:43.234Z,23.70
2023-07-26T05:44:45.798Z,23.70
2023-07-26T05:45:47.940Z,23.70
2023-07-26T05:46:50.793Z,23.72
2023-07-26T05:47:52.934Z,23.75
2023-07-26T05:48:55.110Z,23.78
2023-07-26T05:49:57.538Z,23.81
2023-07-26T05:51:00.021Z,23.82
2023-07-26T05:52:02.205Z,23.83
2023-07-26T05:53:04.355Z,23.83
2023-07-26T05:54:06.459Z,23.84
2023-07-26T05:55:09.501Z,23.83
2023-07-26T05:56:12.564Z,23.86
2023-07-26T05:57:14.853Z,23.85
2023-07-26T05:58:17.100Z,23.88
2023-07-26T05:59:19.230Z,23.87
2023-07-26T06:00:21.622Z,23.89
2023-07-26T06:01:24.023Z,23.90
2023-07-26T06:02:26.439Z,23.94
2023-07-26T06:03:28.671Z,23.99
2023-07-26T06:04:30.721Z,24.02
2023-07-26T06:05:33.092Z,24.03
2023-07-26T06:06:35.579Z,24.02
2023-07-26T06:07:37.605Z,24.03
2023-07-26T06:08:39.793Z,24.00
2023-07-26T06:09:41.935Z,24.00
2023-07-26T06:10:44.599Z,23.99
2023-07-26T06:11:55.578Z,23.97
2023-07-26T06:12:50.840Z,23.96
2023-07-26T06:13:54.424Z,23.97
2023-07-26T06:14:56.564Z,24.00
2023-07-26T06:15:58.737Z,24.02
2023-07-26T06:17:01.680Z,24.07
2023-07-26T06:18:04.117Z,24.11
2023-07-26T06:19:06.644Z,24.17
2023-07-26T06:20:09.890Z,24.18
2023-07-26T06:21:12.079Z,24.21
2023-07-26T06:22:14.167Z,24.22
2023-07-26T06:23:16.263Z,24.25
2023-07-26T06:24:18.406Z,24.28
2023-07-26T06:25:20.564Z,24.34
2023-07-26T06:26:22.942Z,24.38
2023-07-26T06:27:30.041Z,24.44
2023-07-26T06:28:32.292Z,24.48
2023-07-26T06:29:35.344Z,24.53
2023-07-26T06:30:38.384Z,24.55
2023-07-26T06:31:40.639Z,24.55
2023-07-26T06:32:43.009Z,24.53
2023-07-26T06:33:45.304Z,24.53
2023-07-26T06:34:47.400Z,24.50
2023-07-26T06:35:49.373Z,24.47
2023-07-26T06:36:51.593Z,24.50
2023-07-26T06:37:53.657Z,24.54
2023-07-26T06:38:55.710Z,24.59
2023-07-26T06:39:57.780Z,24.64
2023-07-26T06:41:00.005Z,24.65
2023-07-26T06:42:02.193Z,24.67
2023-07-26T06:43:04.414Z,24.71
2023-07-26T06:44:06.499Z,24.72
2023-07-26T06:45:09.284Z,24.70
2023-07-26T06:46:12.443Z,24.66
2023-07-26T06:47:14.571Z,24.64
2023-07-26T06:48:17.345Z,24.61
2023-07-26T06:49:19.802Z,24.60
2023-07-26T06:50:22.310Z,24.61
2023-07-26T06:51:24.629Z,24.63
2023-07-26T06:52:29.194Z,24.64
2023-07-26T06:53:31.936Z,24.59
2023-07-26T06:54:34.036Z,24.54
2023-07-26T06:55:37.330Z,24.49
2023-07-26T06:56:39.637Z,24.47
2023-07-26T06:57:41.660Z,24.47
2023-07-26T06:58:43.676Z,24.46
2023-07-26T06:59:45.802Z,24.47
2023-07-26T07:00:48.109Z,24.42
2023-07-26T07:01:50.353Z,24.39
2023-07-26T07:04:15.578Z,24.43
2023-07-26T07:05:18.146Z,24.35
2023-07-26T07:06:20.656Z,24.38
2023-07-26T07:07:22.760Z,24.41
2023-07-26T07:08:24.850Z,24.44
2023-07-26T07:09:27.075Z,24.48
2023-07-26T07:10:29.387Z,24.49
2023-07-26T07:11:31.622Z,24.53
2023-07-26T07:12:33.891Z,24.56
2023-07-26T07:13:36.865Z,24.61
2023-07-26T07:14:39.029Z,24.67
2023-07-26T07:15:41.108Z,24.70
2023-07-26T07:16:43.636Z,24.75
2023-07-26T07:17:45.725Z,24.79
2023-07-26T07:18:48.909Z,24.83
2023-07-26T07:19:51.076Z,24.88
2023-07-26T07:20:57.739Z,24.92
2023-07-26T07:21:59.947Z,24.97
2023-07-26T07:23:02.026Z,25.02
2023-07-26T07:24:04.625Z,25.07
2023-07-26T07:25:07.180Z,25.12
2023-07-26T07:26:09.785Z,25.13
2023-07-26T07:27:12.067Z,25.16
2023-07-26T07:28:14.175Z,25.19
2023-07-26T07:29:16.414Z,25.19
2023-07-26T07:30:18.757Z,25.19
2023-07-26T07:31:20.819Z,25.19
2023-07-26T07:32:23.253Z,25.19
2023-07-26T07:33:25.350Z,25.19
2023-07-26T07:34:27.438Z,25.17
2023-07-26T07:35:29.415Z,25.13
2023-07-26T07:36:31.778Z,25.14
2023-07-26T07:37:33.945Z,25.18
2023-07-26T07:38:36.336Z,25.21
2023-07-26T07:39:38.400Z,25.25
2023-07-26T07:40:40.885Z,25.29
2023-07-26T07:41:43.007Z,25.36
2023-07-26T07:42:45.035Z,25.47
2023-07-26T07:43:47.092Z,25.54
2023-07-26T07:44:49.235Z,25.62
2023-07-26T07:45:51.354Z,25.65
2023-07-26T07:47:02.695Z,25.66
2023-07-26T07:47:57.627Z,25.65
2023-07-26T07:49:00.608Z,25.62
2023-07-26T07:50:03.156Z,25.60
2023-07-26T07:52:08.053Z,25.60
2023-07-26T07:53:10.658Z,25.55
2023-07-26T07:54:12.784Z,25.49
2023-07-26T07:55:14.733Z,25.41
2023-07-26T07:56:17.466Z,25.32
2023-07-26T07:57:19.585Z,25.18
2023-07-26T07:58:21.747Z,25.12
2023-07-26T07:59:24.009Z,25.09
2023-07-26T08:00:26.302Z,25.06
2023-07-26T08:01:28.439Z,25.06
2023-07-26T08:02:30.667Z,25.08
2023-07-26T08:03:32.822Z,25.12
2023-07-26T08:04:37.409Z,25.18
2023-07-26T08:05:40.677Z,25.19
2023-07-26T08:06:42.885Z,25.23
2023-07-26T08:07:45.217Z,25.24
2023-07-26T08:08:47.379Z,25.32
2023-07-26T08:09:49.466Z,25.32
2023-07-26T08:10:52.065Z,25.28
2023-07-26T08:11:54.149Z,25.27
2023-07-26T08:12:56.252Z,25.29
2023-07-26T08:13:58.396Z,25.33
2023-07-26T08:15:00.515Z,25.38
2023-07-26T08:16:04.997Z,25.43
2023-07-26T08:17:08.700Z,25.50
2023-07-26T08:18:11.017Z,25.60
2023-07-26T08:19:13.159Z,25.66
2023-07-26T08:20:15.459Z,25.69
2023-07-26T08:21:17.573Z,25.68
2023-07-26T08:22:19.678Z,25.63
2023-07-26T08:23:24.842Z,25.60
2023-07-26T08:24:27.673Z,25.61
2023-07-26T08:25:30.487Z,25.67
2023-07-26T08:26:32.605Z,25.73
2023-07-26T08:27:34.841Z,25.79
2023-07-26T08:28:37.062Z,25.84
2023-07-26T08:29:39.210Z,25.93
2023-07-26T08:30:42.381Z,25.98
2023-07-26T08:31:44.607Z,26.05
2023-07-26T08:32:46.780Z,26.10
2023-07-26T08:33:48.857Z,26.13
2023-07-26T08:34:51.004Z,26.19
2023-07-26T08:35:53.636Z,26.26
2023-07-26T08:36:55.894Z,26.33
2023-07-26T08:37:58.096Z,26.32
2023-07-26T08:39:00.433Z,26.30
2023-07-26T08:40:03.006Z,26.29
2023-07-26T08:41:05.213Z,26.25
2023-07-26T08:42:07.949Z,26.22
2023-07-26T08:43:10.349Z,26.18
2023-07-26T08:44:13.492Z,26.14
2023-07-26T08:45:16.699Z,26.09
2023-07-26T08:46:20.995Z,26.03
2023-07-26T08:47:23.305Z,26.04
2023-07-26T08:48:25.675Z,26.06
2023-07-26T08:49:28.625Z,26.08
2023-07-26T08:50:31.368Z,26.07
2023-07-26T08:51:34.087Z,26.06
2023-07-26T08:52:37.111Z,26.09
2023-07-26T08:53:40.643Z,26.07
2023-07-26T08:54:44.087Z,26.06
2023-07-26T08:55:47.708Z,26.06
2023-07-26T08:56:50.469Z,26.07
2023-07-26T08:57:52.729Z,26.09
2023-07-26T08:58:54.812Z,26.10
2023-07-26T08:59:56.889Z,26.12
2023-07-26T09:00:59.540Z,26.09
2023-07-26T09:02:04.793Z,26.05
2023-07-26T09:03:08.079Z,26.00
2023-07-26T09:04:10.276Z,25.96
2023-07-26T09:05:12.920Z,25.92
2023-07-26T09:06:15.721Z,25.89
2023-07-26T09:07:18.651Z,25.87
2023-07-26T09:08:20.939Z,25.83
2023-07-26T09:09:23.230Z,25.80
2023-07-26T09:10:27.632Z,25.75
2023-07-26T09:11:29.944Z,25.73
2023-07-26T09:12:32.078Z,25.65
2023-07-26T09:13:34.251Z,25.61
2023-07-26T09:14:36.313Z,25.53
2023-07-26T09:15:40.813Z,25.50
2023-07-26T09:16:43.246Z,25.45
2023-07-26T09:17:46.084Z,25.41
2023-07-26T09:19:05.252Z,25.32
2023-07-26T09:20:22.321Z,25.23
2023-07-26T09:22:35.481Z,25.11
2023-07-26T09:23:52.092Z,24.89
2023-07-26T09:24:50.369Z,24.84
2023-07-26T09:25:52.632Z,24.75
2023-07-26T09:26:58.657Z,24.65
2023-07-26T09:28:01.919Z,24.55
2023-07-26T09:29:14.692Z,24.46
2023-07-26T09:30:22.104Z,24.36
2023-07-26T09:31:31.828Z,24.23
2023-07-26T09:32:34.328Z,24.11
2023-07-26T09:33:37.123Z,24.00
2023-07-26T09:34:40.084Z,23.85
2023-07-26T09:35:47.358Z,23.79
2023-07-26T09:36:51.202Z,23.70
2023-07-26T09:37:55.358Z,23.62
2023-07-26T09:38:58.086Z,23.56
2023-07-26T09:40:01.024Z,23.47
2023-07-26T09:42:21.500Z,23.50
2023-07-26T09:43:38.218Z,23.32
2023-07-26T09:44:43.384Z,23.29
2023-07-26T09:45:45.530Z,23.22
2023-07-26T09:48:20.822Z,23.26
2023-07-26T09:49:24.105Z,23.07
2023-07-26T09:51:32.678Z,22.97
2023-07-26T09:52:35.025Z,22.95
2023-07-26T09:53:37.813Z,22.94
2023-07-26T09:54:39.904Z,22.98
2023-07-26T09:55:42.370Z,23.01
2023-07-26T09:56:46.153Z,23.06
2023-07-26T09:57:49.042Z,23.09
2023-07-26T09:58:51.579Z,23.15
2023-07-26T09:59:56.243Z,23.22
2023-07-26T10:01:01.090Z,23.27
2023-07-26T10:02:06.066Z,23.29
2023-07-26T10:03:10.913Z,23.31
2023-07-26T10:04:15.612Z,23.36
2023-07-26T10:05:19.213Z,23.41
2023-07-26T10:06:23.445Z,23.45
2023-07-26T10:07:25.985Z,23.49
2023-07-26T10:08:28.161Z,23.56
2023-07-26T10:09:31.390Z,23.62
2023-07-26T10:10:33.656Z,23.63
2023-07-26T10:11:36.682Z,23.67
2023-07-26T10:12:40.246Z,23.71
2023-07-26T10:13:43.554Z,23.67
2023-07-26T10:14:47.329Z,23.64
2023-07-26T10:15:50.986Z,23.60
2023-07-26T10:16:53.516Z,23.56
2023-07-26T10:17:55.927Z,23.52
2023-07-26T10:19:01.981Z,23.52
2023-07-26T10:20:05.905Z,23.55
2023-07-26T10:21:09.505Z,23.57
2023-07-26T10:22:11.836Z,23.62
2023-07-26T10:23:14.394Z,23.64
2023-07-26T10:24:17.410Z,23.74
2023-07-26T10:25:20.085Z,23.84
2023-07-26T10:26:22.754Z,23.95
2023-07-26T10:27:25.483Z,24.04
2023-07-26T10:28:28.263Z,24.06
2023-07-26T10:29:30.566Z,24.07
2023-07-26T10:30:33.177Z,24.13
2023-07-26T10:31:35.630Z,24.19
2023-07-26T10:32:46.556Z,24.20
2023-07-26T10:33:49.007Z,24.26
2023-07-26T10:36:05.621Z,24.41
2023-07-26T10:37:18.340Z,24.28
2023-07-26T10:38:20.585Z,24.26
2023-07-26T10:39:30.032Z,24.21
2023-07-26T10:40:37.761Z,24.18
2023-07-26T10:41:49.791Z,24.10
2023-07-26T10:42:52.089Z,24.03
2023-07-26T10:44:09.101Z,23.97
2023-07-26T10:45:15.025Z,23.93
2023-07-26T10:46:18.026Z,23.93
2023-07-26T10:47:21.756Z,23.95
2023-07-26T10:48:30.627Z,23.97
2023-07-26T10:49:34.246Z,24.04
2023-07-26T10:50:36.467Z,24.06
2023-07-26T10:51:42.333Z,24.07
2023-07-26T10:52:44.545Z,24.08
2023-07-26T10:53:46.587Z,24.13
2023-07-26T10:54:50.397Z,24.21
2023-07-26T10:55:52.454Z,24.22
2023-07-26T10:57:22.537Z,24.23
2023-07-26T10:58:24.686Z,24.23
2023-07-26T10:59:27.971Z,24.22
2023-07-26T11:00:34.905Z,24.25
2023-07-26T11:01:39.497Z,24.27
2023-07-26T11:02:47.124Z,24.35
2023-07-26T11:03:49.232Z,24.38
2023-07-26T11:04:52.200Z,24.42
2023-07-26T11:05:55.674Z,24.49
2023-07-26T11:07:00.914Z,24.55
2023-07-26T11:08:06.269Z,24.62
2023-07-26T11:10:39.505Z,24.90
2023-07-26T11:11:56.568Z,24.89
2023-07-26T11:13:13.737Z,25.00
2023-07-26T11:14:17.198Z,25.13
2023-07-26T11:16:13.024Z,25.27
2023-07-26T11:16:37.588Z,25.37
2023-07-26T11:17:43.114Z,25.43
2023-07-26T11:18:45.235Z,25.50
2023-07-26T11:21:18.370Z,25.77
2023-07-26T11:22:21.032Z,25.72
2023-07-26T11:23:28.597Z,25.80
2023-07-26T11:24:31.092Z,25.87
2023-07-26T11:25:35.484Z,25.85
2023-07-26T11:26:45.949Z,25.86
2023-07-26T11:27:49.293Z,25.88
2023-07-26T11:28:51.626Z,25.96
2023-07-26T11:29:53.732Z,25.99
2023-07-26T11:30:56.644Z,26.00
2023-07-26T11:31:58.857Z,26.05
2023-07-26T11:33:01.045Z,26.10
2023-07-26T11:34:18.217Z,26.16
2023-07-26T11:35:23.260Z,26.22
2023-07-26T11:36:25.300Z,26.17
2023-07-26T11:37:27.442Z,26.13
2023-07-26T11:38:29.563Z,26.09
2023-07-26T11:39:31.657Z,26.06
2023-07-26T11:40:41.133Z,26.05
2023-07-26T11:41:44.138Z,26.04
2023-07-26T11:42:46.823Z,26.00
2023-07-26T11:43:48.966Z,25.99
2023-07-26T11:44:51.171Z,26.00
2023-07-26T11:45:53.793Z,26.00
2023-07-26T11:47:00.266Z,26.00
2023-07-26T11:48:02.745Z,25.99
2023-07-26T11:49:05.018Z,25.94
2023-07-26T11:50:07.691Z,25.92
2023-07-26T11:51:09.877Z,25.89
2023-07-26T11:52:14.640Z,25.87
2023-07-26T11:53:25.074Z,25.80
2023-07-26T11:54:21.082Z,25.76
2023-07-26T11:55:23.194Z,25.71
2023-07-26T11:56:29.138Z,25.68
2023-07-26T11:57:32.076Z,25.65
2023-07-26T11:58:34.972Z,25.62
2023-07-26T11:59:37.364Z,25.62
2023-07-26T12:00:46.018Z,25.62
2023-07-26T12:01:48.305Z,25.63
2023-07-26T12:02:50.470Z,25.64
2023-07-26T12:03:52.672Z,25.69
2023-07-26T12:05:20.428Z,25.70
2023-07-26T12:06:31.420Z,25.73
2023-07-26T12:07:35.384Z,25.78
2023-07-26T12:08:37.866Z,25.82
2023-07-26T12:09:46.470Z,25.84
2023-07-26T12:10:50.468Z,25.87
2023-07-26T12:11:53.504Z,25.87
2023-07-26T12:12:56.417Z,25.90
2023-07-26T12:13:58.739Z,25.93
2023-07-26T12:15:03.435Z,25.97
2023-07-26T12:16:06.155Z,25.98
2023-07-26T12:17:12.226Z,25.99
2023-07-26T12:18:14.575Z,25.99
2023-07-26T12:19:22.135Z,26.04
2023-07-26T12:20:34.239Z,26.07
2023-07-26T12:21:29.845Z,26.13
2023-07-26T12:22:31.946Z,26.18
2023-07-26T12:23:53.777Z,26.18
2023-07-26T12:24:57.037Z,26.18
2023-07-26T12:26:01.123Z,26.20
2023-07-26T12:27:03.689Z,26.21
2023-07-26T12:28:06.944Z,26.23
2023-07-26T12:29:09.157Z,26.24
2023-07-26T12:30:13.007Z,26.25
2023-07-26T12:31:20.195Z,26.29
2023-07-26T12:32:22.370Z,26.33
2023-07-26T12:33:25.567Z,26.40
2023-07-26T12:34:32.551Z,26.51
2023-07-26T12:35:35.417Z,26.65
2023-07-26T12:36:41.651Z,26.81
2023-07-26T12:37:43.782Z,27.02
2023-07-26T12:38:46.367Z,27.17
2023-07-26T12:39:48.481Z,27.30
2023-07-26T12:40:52.206Z,27.42
2023-07-26T12:41:54.369Z,27.51
2023-07-26T12:42:56.483Z,27.64
2023-07-26T12:43:58.728Z,27.76
2023-07-26T12:45:00.870Z,27.86
2023-07-26T12:46:03.335Z,27.90
2023-07-26T12:48:09.464Z,27.91
2023-07-26T12:49:11.961Z,27.96
2023-07-26T12:50:15.414Z,27.99
2023-07-26T12:51:17.593Z,27.97
2023-07-26T12:52:19.720Z,27.97
2023-07-26T12:53:24.266Z,28.01
2023-07-26T12:54:27.254Z,28.04
2023-07-26T12:55:29.607Z,28.07
2023-07-26T12:56:31.952Z,28.10
2023-07-26T12:57:35.008Z,28.14
2023-07-26T12:58:37.166Z,28.25
2023-07-26T12:59:40.182Z,28.36
2023-07-26T13:00:43.011Z,28.40
2023-07-26T13:01:45.248Z,28.38
2023-07-26T13:02:47.544Z,28.34
2023-07-26T13:03:49.765Z,28.26
2023-07-26T13:04:52.242Z,28.19
2023-07-26T13:05:54.347Z,28.12
2023-07-26T13:06:56.673Z,28.11
2023-07-26T13:07:59.076Z,28.09
2023-07-26T13:09:02.130Z,28.09
2023-07-26T13:10:05.230Z,28.05
2023-07-26T13:11:07.417Z,28.01
2023-07-26T13:12:09.539Z,28.01
2023-07-26T13:13:11.674Z,28.12
2023-07-26T13:14:14.019Z,28.22
2023-07-26T13:15:17.174Z,28.33
2023-07-26T13:16:20.002Z,28.42
2023-07-26T13:17:22.302Z,28.50
2023-07-26T13:18:24.474Z,28.41
2023-07-26T13:19:26.581Z,28.34
2023-07-26T13:20:29.501Z,28.25
2023-07-26T13:23:01.158Z,28.15
2023-07-26T13:24:03.698Z,27.94
2023-07-26T13:25:06.770Z,27.90
2023-07-26T13:26:09.552Z,27.87
2023-07-26T13:27:11.671Z,27.83
2023-07-26T13:28:13.817Z,27.83
2023-07-26T13:29:16.204Z,27.83
2023-07-26T13:30:18.873Z,27.78
2023-07-26T13:31:21.031Z,27.74
2023-07-26T13:32:23.239Z,27.87
2023-07-26T13:33:26.957Z,28.00
2023-07-26T13:34:29.265Z,28.11
2023-07-26T13:35:31.597Z,28.11
2023-07-26T13:36:34.210Z,28.11
2023-07-26T13:37:36.642Z,28.07
2023-07-26T13:38:38.713Z,28.05
2023-07-26T13:39:40.791Z,28.04
2023-07-26T13:40:43.649Z,28.12
2023-07-26T13:41:45.774Z,28.21
2023-07-26T13:42:48.114Z,28.23
2023-07-26T13:43:50.214Z,28.27
2023-07-26T13:44:52.509Z,28.34
2023-07-26T13:45:54.578Z,28.43
2023-07-26T13:46:57.031Z,28.53
2023-07-26T13:47:59.154Z,28.60
2023-07-26T13:49:01.313Z,28.64
2023-07-26T13:50:04.161Z,28.76
2023-07-26T13:51:08.290Z,28.86
2023-07-26T13:52:10.477Z,28.93
2023-07-26T13:53:12.677Z,28.88